Time;durP1;ratioP1;P1;durP2;ratioP2;P2;SDS_P1;SDS_P2;PMS_P1;PMS_P2;Temp;Humidity;BMP_temperature;BMP_pressure;BME280_temperature;BME280_humidity;BME280_pressure;Samples;Min_cycle;Max_cycle;Signal;HPM_P1;HPM_P2
2022/05/23 00:00:09;;;;;;;4.85;2.52;;;;;;;11.11;68.83;96289.19;1749020;80;21371;-84
2022/05/23 00:02:37;;;;;;;4.97;2.30;;;;;;;11.04;68.67;96291.71;1789278;80;21005;-84
2022/05/23 00:05:03;;;;;;;4.08;2.80;;;;;;;10.99;68.79;96289.37;1789902;80;21026;-84
2022/05/23 00:07:35;;;;;;;4.47;2.90;;;;;;;10.94;68.69;96291.23;1788233;80;20977;-83
2022/05/23 00:10:03;;;;;;;5.42;2.83;;;;;;;10.90;68.72;96293.07;1768799;80;21031;-83
2022/05/23 00:12:29;;;;;;;4.22;3.17;;;;;;;10.82;68.74;96290.91;1767543;80;21019;-84
2022/05/23 00:14:55;;;;;;;6.15;3.20;;;;;;;10.75;68.88;96284.06;1783008;80;21018;-84
2022/05/23 00:17:20;;;;;;;4.42;3.02;;;;;;;10.67;69.05;96285.45;1780971;80;20987;-84
2022/05/23 00:19:47;;;;;;;6.40;3.55;;;;;;;10.60;69.18;96285.41;1780138;80;21354;-84
2022/05/23 00:22:14;;;;;;;5.70;3.37;;;;;;;10.52;69.37;96283.70;1780015;80;21002;-84
2022/05/23 00:24:41;;;;;;;4.60;3.08;;;;;;;10.47;69.56;96284.76;1775716;80;20971;-84
2022/05/23 00:27:09;;;;;;;4.50;3.45;;;;;;;10.44;69.71;96285.62;1775372;80;21058;-84
2022/05/23 00:29:35;;;;;;;6.70;3.75;;;;;;;10.41;69.81;96291.16;1770654;80;21413;-84
2022/05/23 00:37:29;;;;;;;6.10;3.87;;;;;;;10.23;70.23;96298.05;1783189;80;20995;-84
2022/05/23 00:39:55;;;;;;;5.87;4.30;;;;;;;10.16;70.33;96295.84;1766676;80;21023;-84
2022/05/23 00:45:10;;;;;;;7.00;4.20;;;;;;;10.06;70.82;96303.89;1789227;80;21031;-84
2022/05/23 00:47:36;;;;;;;6.67;4.33;;;;;;;10.07;70.99;96306.00;1780179;80;20932;-84
2022/05/23 00:50:03;;;;;;;6.17;3.72;;;;;;;10.08;71.10;96311.50;1772525;80;20982;-83
2022/05/23 00:52:43;;;;;;;5.90;4.15;;;;;;;10.09;71.20;96308.75;1779310;80;21007;-83
2022/05/23 00:55:26;;;;;;;6.00;4.37;;;;;;;10.09;71.29;96304.05;1779557;80;20991;-83
2022/05/23 00:57:56;;;;;;;6.92;4.12;;;;;;;10.07;71.54;96299.51;1774843;80;21027;-83
2022/05/23 01:00:22;;;;;;;5.40;4.55;;;;;;;10.03;71.56;96294.38;1784177;80;20955;-83
2022/05/23 01:02:55;;;;;;;6.60;4.03;;;;;;;10.02;71.60;96296.16;1789083;80;21000;-83
2022/05/23 01:05:21;;;;;;;6.03;4.03;;;;;;;10.01;71.55;96300.23;1788040;80;21037;-83
2022/05/23 01:07:46;;;;;;;5.55;4.17;;;;;;;9.98;71.58;96296.71;1788163;80;21053;-83
2022/05/23 01:10:12;;;;;;;7.67;4.70;;;;;;;9.96;71.56;96299.98;1788119;80;21031;-83
2022/05/23 01:12:38;;;;;;;6.17;4.62;;;;;;;9.93;71.70;96302.45;1788035;80;21091;-82
2022/05/23 01:15:05;;;;;;;4.87;4.15;;;;;;;9.87;71.94;96300.05;1789060;80;21055;-82
2022/05/23 01:17:31;;;;;;;7.60;4.95;;;;;;;9.84;72.05;96306.10;1741594;80;20995;-83
2022/05/23 01:19:56;;;;;;;7.97;4.50;;;;;;;9.80;72.12;96302.27;1795452;80;21024;-83
2022/05/23 01:22:34;;;;;;;6.33;4.45;;;;;;;9.76;72.13;96305.70;1795808;80;21282;-83
2022/05/23 01:25:21;;;;;;;7.05;4.28;;;;;;;9.76;72.15;96299.69;1795804;80;20938;-83
2022/05/23 01:27:47;;;;;;;4.85;3.60;;;;;;;9.73;72.16;96293.56;1795603;80;20999;-83
2022/05/23 01:30:14;;;;;;;5.60;3.92;;;;;;;9.70;72.48;96299.11;1795033;79;21441;-83
2022/05/23 01:32:40;;;;;;;5.25;4.08;;;;;;;9.68;72.53;96296.70;1796006;80;21031;-82
2022/05/23 01:35:07;;;;;;;4.20;3.77;;;;;;;9.63;72.65;96297.23;1796248;80;21073;-83
2022/05/23 01:37:33;;;;;;;5.95;4.10;;;;;;;9.58;72.78;96298.24;1796184;80;21097;-83
2022/05/23 01:39:59;;;;;;;4.58;3.83;;;;;;;9.55;72.84;96296.50;1768211;80;20990;-82
2022/05/23 01:42:24;;;;;;;7.40;3.85;;;;;;;9.52;72.92;96292.97;1764837;81;21428;-82
2022/05/23 01:44:50;;;;;;;4.58;3.40;;;;;;;9.51;73.09;96292.66;1785944;80;21060;-83
2022/05/23 01:47:18;;;;;;;4.83;3.80;;;;;;;9.51;73.15;96288.77;1795958;80;21115;-83
2022/05/23 01:49:44;;;;;;;5.17;3.52;;;;;;;9.52;73.27;96287.78;1796172;80;21064;-83
2022/05/23 01:52:10;;;;;;;5.10;3.50;;;;;;;9.51;73.28;96284.38;1796185;80;21032;-83
2022/05/23 01:54:36;;;;;;;6.42;4.17;;;;;;;9.50;73.51;96282.77;1796342;80;21344;-83
2022/05/23 01:57:03;;;;;;;5.12;4.00;;;;;;;9.46;73.57;96275.04;1793631;79;20992;-83
2022/05/23 02:02:13;;;;;;;4.00;3.27;;;;;;;9.46;73.94;96269.85;1794821;80;21001;-83
2022/05/23 02:04:39;;;;;;;6.25;3.33;;;;;;;9.48;73.92;96268.38;1794884;80;20985;-83
2022/05/23 02:07:05;;;;;;;5.42;3.40;;;;;;;9.46;73.86;96264.66;1795439;80;20969;-81
2022/05/23 02:09:32;;;;;;;5.10;3.70;;;;;;;9.46;73.80;96266.45;1795178;80;21048;-83
2022/05/23 02:11:58;;;;;;;4.67;3.25;;;;;;;9.43;73.92;96267.59;1795375;79;20999;-83
2022/05/23 02:14:24;;;;;;;6.85;4.10;;;;;;;9.39;73.86;96267.63;1795521;80;20994;-82
2022/05/23 02:16:50;;;;;;;3.80;3.33;;;;;;;9.35;73.97;96270.27;1795245;80;21468;-83
2022/05/23 02:19:15;;;;;;;5.20;3.37;;;;;;;9.32;73.99;96269.34;1796301;80;21016;-83
2022/05/23 02:21:41;;;;;;;4.00;3.47;;;;;;;9.28;74.06;96268.08;1796285;80;20968;-83
2022/05/23 02:24:07;;;;;;;5.72;3.98;;;;;;;9.27;74.03;96273.77;1796243;80;20960;-83
2022/05/23 02:26:34;;;;;;;4.85;3.77;;;;;;;9.26;74.03;96269.53;1796148;80;21018;-83
2022/05/23 02:29:00;;;;;;;3.85;3.30;;;;;;;9.24;74.18;96264.20;1796114;80;20967;-84
2022/05/23 02:31:26;;;;;;;5.10;4.00;;;;;;;9.20;74.42;96263.76;1796234;80;21070;-83
2022/05/23 02:33:52;;;;;;;4.97;4.20;;;;;;;9.18;74.51;96264.92;1773496;80;20948;-83
2022/05/23 02:36:17;;;;;;;5.12;4.12;;;;;;;9.15;74.63;96257.50;1796204;80;20967;-83
2022/05/23 02:38:43;;;;;;;7.25;3.80;;;;;;;9.13;74.49;96256.88;1796247;80;21427;-83
2022/05/23 02:41:09;;;;;;;6.03;3.85;;;;;;;9.14;74.61;96261.08;1796113;80;20956;-83
2022/05/23 02:43:34;;;;;;;5.37;3.62;;;;;;;9.15;74.54;96263.48;1795904;80;20959;-83
2022/05/23 02:46:00;;;;;;;4.83;3.40;;;;;;;9.14;74.71;96250.70;1796015;80;21030;-83
2022/05/23 02:48:26;;;;;;;6.50;3.55;;;;;;;9.11;74.77;96247.14;1795838;80;21305;-83
2022/05/23 02:50:51;;;;;;;5.25;4.03;;;;;;;9.09;74.83;96253.80;1796035;80;20967;-83
2022/05/23 02:53:17;;;;;;;5.92;4.50;;;;;;;9.06;74.94;96250.77;1796307;80;20940;-83
2022/05/23 02:55:43;;;;;;;6.25;4.08;;;;;;;9.02;74.96;96252.91;1796214;80;20975;-82
2022/05/23 02:58:10;;;;;;;6.03;4.28;;;;;;;9.03;74.99;96252.73;1796149;80;21330;-83
2022/05/23 03:00:37;;;;;;;5.92;3.83;;;;;;;9.02;74.99;96255.00;1796034;80;21307;-83
2022/05/23 03:03:04;;;;;;;5.03;3.40;;;;;;;9.06;75.06;96250.77;1796017;80;20987;-83
2022/05/23 03:05:32;;;;;;;4.70;3.72;;;;;;;9.03;75.04;96251.92;1796000;80;20944;-83
2022/05/23 03:07:59;;;;;;;6.50;3.90;;;;;;;9.02;75.12;96255.00;1796194;80;21006;-83
2022/05/23 03:10:25;;;;;;;4.70;4.20;;;;;;;9.00;75.11;96253.08;1795999;80;21045;-83
2022/05/23 03:12:51;;;;;;;5.92;4.03;;;;;;;8.96;75.14;96254.42;1796212;80;21359;-83
2022/05/23 03:15:17;;;;;;;5.03;3.98;;;;;;;8.93;75.22;96256.53;1795592;80;20955;-83
2022/05/23 03:17:43;;;;;;;5.53;4.20;;;;;;;8.91;75.33;96256.70;1789686;80;21071;-83
2022/05/23 03:20:10;;;;;;;6.03;3.85;;;;;;;8.91;75.37;96247.64;1789821;80;21019;-83
2022/05/23 03:28:06;;;;;;;4.87;4.33;;;;;;;8.92;75.70;96258.81;1789751;80;20980;-83
2022/05/23 03:30:31;;;;;;;6.72;4.75;;;;;;;8.89;75.87;96253.48;1789711;80;21311;-84
2022/05/23 03:32:57;;;;;;;6.83;3.80;;;;;;;8.88;75.96;96252.37;1789797;80;21024;-83
2022/05/23 03:35:26;;;;;;;6.53;4.17;;;;;;;8.89;76.16;96256.08;1789870;80;21113;-84
2022/05/23 03:37:52;;;;;;;6.42;4.60;;;;;;;8.92;76.12;96262.20;1789518;80;20952;-82
2022/05/23 03:40:18;;;;;;;6.65;4.72;;;;;;;8.95;75.92;96263.66;1789708;80;21024;-83
2022/05/23 03:42:44;;;;;;;7.08;4.42;;;;;;;8.96;75.92;96265.27;1789866;80;21001;-83
2022/05/23 03:45:10;;;;;;;6.30;4.22;;;;;;;8.95;76.08;96263.66;1789660;80;21320;-83
2022/05/23 03:47:36;;;;;;;7.65;4.47;;;;;;;8.94;76.32;96265.91;1789391;80;21444;-82
2022/05/23 03:50:03;;;;;;;5.53;4.85;;;;;;;8.94;76.39;96268.02;1789644;80;20898;-83
2022/05/23 03:52:28;;;;;;;6.58;4.37;;;;;;;8.94;76.43;96271.09;1789220;80;20985;-82
2022/05/23 03:54:54;;;;;;;6.87;4.58;;;;;;;8.97;76.44;96278.55;1789693;80;20989;-83
2022/05/23 03:57:23;;;;;;;4.60;3.90;;;;;;;8.99;76.37;96279.17;1789356;80;21085;-83
2022/05/23 03:59:50;;;;;;;5.22;4.03;;;;;;;8.99;76.44;96285.66;1789628;80;21020;-83
2022/05/23 04:02:15;;;;;;;4.20;3.17;;;;;;;8.99;76.54;96288.25;1789396;80;21045;-83
2022/05/23 04:04:41;;;;;;;4.22;3.40;;;;;;;8.97;76.62;96290.21;1789644;80;21016;-83
2022/05/23 04:07:07;;;;;;;4.70;3.10;;;;;;;8.95;76.78;96297.36;1789806;80;21449;-83
2022/05/23 04:09:33;;;;;;;4.22;2.85;;;;;;;8.96;76.86;96306.25;1789772;80;20971;-83
2022/05/23 04:11:59;;;;;;;3.20;2.70;;;;;;;9.00;76.88;96305.41;1789862;80;21051;-83
2022/05/23 04:14:29;;;;;;;5.08;3.02;;;;;;;9.02;76.86;96309.92;1789973;80;20946;-83
2022/05/23 04:16:53;;;;;;;3.90;3.25;;;;;;;9.06;76.90;96302.11;1788241;80;21071;-83
2022/05/23 04:19:19;;;;;;;5.40;3.00;;;;;;;9.11;77.01;96309.35;1789266;80;21037;-83
2022/05/23 04:21:47;;;;;;;3.77;2.75;;;;;;;9.13;77.10;96313.41;1789275;80;21385;-82
2022/05/23 04:24:15;;;;;;;4.97;3.00;;;;;;;9.17;77.21;96315.16;1789677;80;20984;-83
2022/05/23 04:26:41;;;;;;;4.20;3.20;;;;;;;9.19;77.09;96314.00;1789392;80;20991;-82
2022/05/23 04:29:08;;;;;;;3.85;3.05;;;;;;;9.22;76.98;96314.13;1789559;80;20985;-83
2022/05/23 04:31:35;;;;;;;3.30;2.77;;;;;;;9.24;77.12;96309.09;1770098;80;20959;-83
2022/05/23 04:36:46;;;;;;;4.90;2.90;;;;;;;9.28;77.14;96304.38;1736700;81;21433;-83
2022/05/23 04:39:12;;;;;;;7.47;3.70;;;;;;;9.27;77.17;96299.69;1758624;80;21023;-83
2022/05/23 04:41:37;;;;;;;5.12;3.47;;;;;;;9.26;77.23;96295.95;1758419;80;21051;-83
2022/05/23 04:44:03;;;;;;;4.47;3.30;;;;;;;9.28;77.23;96300.49;1765554;80;21020;-83
2022/05/23 04:46:29;;;;;;;4.35;3.58;;;;;;;9.31;77.27;96296.25;1773735;80;21477;-83
2022/05/23 04:51:34;;;;;;;6.53;4.70;;;;;;;9.39;77.37;96295.36;1703474;80;20944;-84
2022/05/23 04:54:00;;;;;;;6.85;4.45;;;;;;;9.43;77.50;96292.22;1789706;80;21386;-82
2022/05/23 04:56:27;;;;;;;5.78;4.65;;;;;;;9.46;77.59;96287.20;1789700;80;21096;-83
2022/05/23 04:58:53;;;;;;;6.90;4.83;;;;;;;9.48;77.66;96285.23;1789340;80;21390;-83
2022/05/23 05:01:21;;;;;;;6.55;4.33;;;;;;;9.53;77.78;96282.41;1781817;80;20984;-83
2022/05/23 05:03:46;;;;;;;6.20;5.45;;;;;;;9.59;77.79;96279.09;1789277;80;20986;-82
2022/05/23 05:06:12;;;;;;;6.33;5.37;;;;;;;9.67;77.92;96278.72;1788457;80;21035;-82
2022/05/23 05:08:37;;;;;;;6.28;5.65;;;;;;;9.73;77.89;96275.40;1762732;80;21006;-83
2022/05/23 05:11:04;;;;;;;6.83;4.80;;;;;;;9.79;78.01;96274.20;1767750;80;21056;-83
2022/05/23 05:13:32;;;;;;;7.08;4.35;;;;;;;9.87;78.06;96280.59;1772461;80;21427;-82
2022/05/23 05:16:00;;;;;;;6.50;4.35;;;;;;;9.95;78.04;96285.39;1764483;80;21107;-83
2022/05/23 05:18:26;;;;;;;5.15;4.37;;;;;;;10.00;77.98;96288.25;1757732;80;21038;-82
2022/05/23 05:20:52;;;;;;;5.65;4.72;;;;;;;10.06;77.94;96289.62;1757777;81;21018;-83
2022/05/23 05:23:18;;;;;;;7.15;5.10;;;;;;;10.14;77.94;96292.62;1758668;82;20976;-83
2022/05/23 05:25:43;;;;;;;7.45;5.28;;;;;;;10.20;78.01;96295.29;1762880;80;21371;-83
2022/05/23 05:28:09;;;;;;;5.78;5.17;;;;;;;10.27;78.11;96299.31;1789070;80;20948;-82
2022/05/23 05:30:40;;;;;;;10.88;7.58;;;;;;;10.27;77.97;96297.22;1788959;80;20960;-82
2022/05/23 05:33:10;;;;;;;8.78;6.62;;;;;;;10.28;77.71;96307.42;1788489;80;21024;-83
2022/05/23 05:35:45;;;;;;;9.55;7.05;;;;;;;10.26;77.66;96303.39;1788201;80;21326;-83
2022/05/23 05:38:36;;;;;;;9.53;6.33;;;;;;;10.31;77.93;96311.44;1789131;80;20996;-83
2022/05/23 05:41:06;;;;;;;9.88;7.65;;;;;;;10.39;77.75;96313.92;1757779;82;21008;-83
2022/05/23 05:43:43;;;;;;;9.23;8.23;;;;;;;10.48;77.85;96308.94;1758258;81;20971;-83
2022/05/23 05:46:13;;;;;;;9.75;8.18;;;;;;;10.52;77.75;96302.39;1769936;80;21386;-83
2022/05/23 05:48:40;;;;;;;10.75;8.78;;;;;;;10.52;77.54;96309.69;1789293;80;20981;-83
2022/05/23 05:51:09;;;;;;;10.58;8.85;;;;;;;10.59;77.34;96318.88;1789502;80;20989;-83
2022/05/23 05:53:35;;;;;;;11.60;10.35;;;;;;;10.64;77.52;96320.41;1762281;80;20978;-84
2022/05/23 05:56:01;;;;;;;12.30;8.75;;;;;;;10.70;77.16;96318.87;1789567;80;21352;-85
2022/05/23 05:58:28;;;;;;;10.32;6.53;;;;;;;10.82;77.13;96320.00;1763748;80;21007;-84
2022/05/23 06:00:55;;;;;;;9.68;8.75;;;;;;;10.94;77.61;96322.92;1772850;80;21372;-84
2022/05/23 06:03:20;;;;;;;10.75;8.58;;;;;;;11.01;76.75;96327.69;1789048;80;20991;-84
2022/05/23 06:11:24;;;;;;;12.65;9.90;;;;;;;11.07;76.23;96333.46;1788530;80;22083;-84
2022/05/23 06:13:53;;;;;;;10.90;9.80;;;;;;;11.15;76.14;96327.31;1789350;80;21392;-84
2022/05/23 06:16:19;;;;;;;11.53;9.50;;;;;;;11.25;75.79;96327.33;1789355;80;21474;-84
2022/05/23 06:18:45;;;;;;;11.43;10.10;;;;;;;11.33;75.32;96337.58;1796375;80;20999;-84
2022/05/23 06:21:12;;;;;;;14.10;10.85;;;;;;;11.36;75.25;96341.60;1795789;80;21002;-84
2022/05/23 06:23:42;;;;;;;13.88;9.75;;;;;;;11.37;75.07;96341.41;1794399;80;20949;-84
2022/05/23 06:26:08;;;;;;;13.65;10.05;;;;;;;11.48;75.21;96349.22;1787868;79;20979;-84
2022/05/23 06:28:36;;;;;;;13.65;9.78;;;;;;;11.55;75.02;96346.66;1794728;79;20991;-83
2022/05/23 06:31:02;;;;;;;12.37;9.13;;;;;;;11.64;75.12;96342.94;1794688;80;20993;-84
2022/05/23 06:33:28;;;;;;;12.28;9.03;;;;;;;11.72;74.77;96333.20;1795026;80;21374;-84
2022/05/23 06:35:54;;;;;;;9.20;7.75;;;;;;;11.82;74.74;96337.28;1773571;80;20990;-84
2022/05/23 06:38:20;;;;;;;10.50;8.20;;;;;;;11.90;74.78;96338.45;1795751;80;20984;-84
2022/05/23 06:40:50;;;;;;;11.22;8.30;;;;;;;11.93;73.32;96337.57;1795729;80;22040;-85
2022/05/23 06:43:16;;;;;;;9.70;7.95;;;;;;;12.01;73.67;96325.69;1795949;79;21010;-84
2022/05/23 06:45:42;;;;;;;7.85;6.30;;;;;;;12.13;73.63;96323.85;1795904;80;21032;-85
2022/05/23 06:48:09;;;;;;;9.13;7.75;;;;;;;12.18;74.05;96318.86;1786954;80;21477;-84
2022/05/23 06:50:34;;;;;;;10.05;7.25;;;;;;;12.19;74.20;96320.47;1784836;80;20980;-84
2022/05/23 06:53:00;;;;;;;9.00;6.30;;;;;;;12.20;73.40;96318.16;1768783;80;21338;-84
2022/05/23 06:55:26;;;;;;;7.40;6.33;;;;;;;12.28;72.71;96321.92;1788886;80;20991;-85
2022/05/23 06:57:51;;;;;;;8.63;5.87;;;;;;;12.38;71.62;96316.38;1783766;80;21063;-84
2022/05/23 07:00:18;;;;;;;5.42;4.50;;;;;;;12.49;72.65;96313.98;1745658;80;21063;-84
2022/05/23 07:02:46;;;;;;;6.33;4.85;;;;;;;12.61;71.35;96312.44;1795903;80;21020;-84
2022/05/23 07:13:26;;;;;;;8.28;5.28;;;;;;;13.02;69.86;96299.81;1786541;80;20992;-84
2022/05/23 07:15:51;;;;;;;8.33;5.33;;;;;;;13.12;69.14;96293.68;1764448;80;20939;-85
2022/05/23 07:18:18;;;;;;;7.20;4.78;;;;;;;13.18;68.25;96296.05;1786916;80;21072;-84
2022/05/23 07:20:44;;;;;;;6.45;4.95;;;;;;;13.26;67.90;96298.94;1785993;80;21097;-84
2022/05/23 07:23:11;;;;;;;7.12;5.20;;;;;;;13.36;67.20;96296.75;1792515;80;20982;-84
2022/05/23 07:25:36;;;;;;;6.05;4.17;;;;;;;13.46;66.77;96284.08;1796028;80;20952;-86
2022/05/23 07:28:03;;;;;;;4.60;3.87;;;;;;;13.54;66.84;96290.41;1795669;80;21522;-84
2022/05/23 07:30:29;;;;;;;4.15;3.42;;;;;;;13.60;65.39;96274.44;1788745;80;20959;-84
2022/05/23 07:32:57;;;;;;;4.55;3.65;;;;;;;13.63;65.36;96282.66;1795932;80;21406;-84
2022/05/23 07:35:24;;;;;;;5.95;4.35;;;;;;;13.63;63.74;96281.35;1796102;80;20966;-84
2022/05/23 07:37:50;;;;;;;6.65;4.37;;;;;;;13.63;62.62;96277.94;1796205;80;20969;-84
2022/05/23 07:40:16;;;;;;;5.15;4.15;;;;;;;13.60;62.44;96284.38;1795990;80;20968;-83
2022/05/23 07:42:43;;;;;;;5.10;3.02;;;;;;;13.59;62.08;96284.58;1796064;80;20989;-84
2022/05/23 07:45:10;;;;;;;4.35;2.85;;;;;;;13.65;61.90;96275.92;1795924;80;20997;-84
2022/05/23 07:47:36;;;;;;;3.72;2.92;;;;;;;13.71;61.67;96272.02;1772053;80;21389;-84
2022/05/23 07:50:04;;;;;;;2.87;2.30;;;;;;;13.77;61.10;96273.00;1796145;80;20985;-84
2022/05/23 07:52:30;;;;;;;3.22;1.98;;;;;;;13.80;60.54;96273.89;1773590;80;21057;-84
2022/05/23 08:00:31;;;;;;;3.85;2.35;;;;;;;14.01;57.64;96263.72;1764616;81;21476;-84
2022/05/23 08:03:18;;;;;;;3.98;3.00;;;;;;;13.98;58.42;96249.23;1764748;81;20975;-83
2022/05/23 08:05:45;;;;;;;2.90;2.20;;;;;;;14.15;58.29;96256.61;1764507;81;21378;-83
2022/05/23 08:08:11;;;;;;;4.12;2.72;;;;;;;14.25;59.13;96262.21;1764753;81;21035;-82
2022/05/23 08:10:37;;;;;;;4.03;2.22;;;;;;;14.37;58.03;96259.25;1764532;81;21078;-82
2022/05/23 08:13:08;;;;;;;2.30;1.98;;;;;;;14.45;56.24;96258.23;1764679;81;21684;-82
2022/05/23 08:15:31;;;;;;;2.62;1.87;;;;;;;14.55;56.79;96248.94;1763936;81;21050;-82
2022/05/23 08:17:57;;;;;;;2.00;1.57;;;;;;;14.70;56.20;96252.58;1765819;81;21078;-82
2022/05/23 08:20:23;;;;;;;2.95;1.60;;;;;;;14.86;55.27;96259.92;1766651;81;21043;-82
2022/05/23 08:22:54;;;;;;;4.05;2.33;;;;;;;14.97;54.79;96257.14;1766870;81;21114;-83
2022/05/23 08:25:18;;;;;;;2.42;1.50;;;;;;;15.07;53.93;96250.11;1766106;81;20983;-82
2022/05/23 08:27:44;;;;;;;2.90;1.35;;;;;;;15.16;53.09;96242.30;1766981;81;20975;-82
2022/05/23 08:30:12;;;;;;;3.55;1.90;;;;;;;15.28;53.32;96243.19;1766661;81;21003;-83
2022/05/23 08:32:37;;;;;;;2.10;1.60;;;;;;;15.44;53.28;96240.53;1767055;81;21054;-82
2022/05/23 08:35:04;;;;;;;1.87;1.40;;;;;;;15.63;53.74;96245.36;1766974;81;21125;-83
2022/05/23 08:37:29;;;;;;;2.20;1.82;;;;;;;15.77;51.53;96238.42;1766862;81;21430;-83
2022/05/23 08:39:55;;;;;;;3.05;1.50;;;;;;;15.82;53.16;96243.84;1766870;81;21019;-82
2022/05/23 08:42:32;;;;;;;2.00;1.62;;;;;;;15.98;52.75;96235.11;1766782;81;20987;-83
2022/05/23 08:45:39;;;;;;;3.62;2.20;;;;;;;16.13;51.59;96234.23;1766140;81;21567;-82
2022/05/23 08:48:22;;;;;;;2.87;2.00;;;;;;;16.27;51.31;96232.22;1765209;81;21524;-82
2022/05/23 08:50:59;;;;;;;2.50;2.00;;;;;;;16.34;52.26;96231.13;1766688;81;21010;-83
2022/05/23 08:53:33;;;;;;;3.83;2.00;;;;;;;16.58;52.06;96226.77;1766780;81;21007;-82
2022/05/23 08:56:04;;;;;;;3.60;2.25;;;;;;;16.68;51.96;96225.77;1766362;81;21019;-85
2022/05/23 08:58:56;;;;;;;5.03;2.90;;;;;;;16.77;51.28;96227.06;1767125;81;21407;-83
2022/05/23 09:01:48;;;;;;;4.72;2.65;;;;;;;16.85;51.10;96223.30;1766037;81;21171;-83
2022/05/23 09:04:28;;;;;;;2.67;1.65;;;;;;;16.96;51.12;96219.11;1766949;81;20995;-83
2022/05/23 09:06:54;;;;;;;3.50;1.77;;;;;;;16.94;49.78;96220.66;1767077;81;21469;-83
2022/05/23 09:09:22;;;;;;;3.47;1.90;;;;;;;16.89;48.95;96221.81;1743085;81;21897;-83
2022/05/23 09:11:54;;;;;;;3.10;2.05;;;;;;;16.96;50.62;96213.86;1766534;81;21002;-83
2022/05/23 09:14:20;;;;;;;1.75;1.60;;;;;;;17.13;51.14;96217.42;1766761;81;21461;-83
2022/05/23 09:16:51;;;;;;;1.62;1.30;;;;;;;17.28;50.60;96219.61;1766902;81;20998;-84
2022/05/23 09:19:26;;;;;;;3.70;1.90;;;;;;;17.37;50.10;96215.60;1764911;81;20995;-83
2022/05/23 09:24:55;;;;;;;3.83;1.90;;;;;;;17.54;49.39;96214.41;1764690;81;20996;-83
2022/05/23 09:27:35;;;;;;;3.37;1.77;;;;;;;17.65;49.95;96213.61;1764584;81;21447;-83
2022/05/23 09:30:00;;;;;;;2.60;1.62;;;;;;;17.73;48.84;96210.64;1764286;81;21011;-83
2022/05/23 09:32:29;;;;;;;2.70;1.62;;;;;;;17.69;47.92;96208.20;1764654;81;20963;-86
2022/05/23 09:35:00;;;;;;;1.72;1.20;;;;;;;17.71;47.59;96210.08;1764833;81;21074;-85
2022/05/23 09:37:38;;;;;;;1.90;1.27;;;;;;;17.57;48.87;96208.69;1764953;81;21055;-85
2022/05/23 09:40:06;;;;;;;2.40;1.40;;;;;;;17.62;47.56;96208.81;1764718;81;21086;-85
2022/05/23 09:48:17;;;;;;;1.75;1.10;;;;;;;17.46;47.42;96206.37;1764641;81;21019;-85
2022/05/23 09:50:47;;;;;;;1.55;1.30;;;;;;;17.33;47.09;96207.39;1764991;81;21019;-86
2022/05/23 09:53:35;;;;;;;1.60;1.30;;;;;;;17.30;46.31;96199.97;1755375;81;21042;-85
2022/05/23 09:56:24;;;;;;;2.15;1.50;;;;;;;17.38;47.49;96201.44;1765069;79;21099;-86
2022/05/23 09:58:49;;;;;;;2.87;1.10;;;;;;;17.47;47.69;96197.97;1755175;81;22169;-85
2022/05/23 10:01:26;;;;;;;2.30;1.60;;;;;;;17.62;45.33;96196.48;1763820;81;21082;-85
2022/05/23 10:03:51;;;;;;;2.40;1.37;;;;;;;17.49;45.26;96202.48;1763873;81;21425;-85
2022/05/23 10:06:17;;;;;;;2.37;1.22;;;;;;;17.39;45.96;96195.95;1764497;81;21103;-85
2022/05/23 10:08:45;;;;;;;1.60;1.25;;;;;;;17.42;44.95;96193.93;1763725;81;21311;-85
2022/05/23 10:11:26;;;;;;;1.25;1.07;;;;;;;17.52;47.36;96195.45;1763717;81;21066;-85
2022/05/23 10:13:54;;;;;;;2.25;1.10;;;;;;;17.63;46.68;96189.39;1763691;81;21452;-85
2022/05/23 10:16:29;;;;;;;2.10;1.20;;;;;;;17.79;45.70;96191.34;1764153;81;21417;-86
2022/05/23 10:19:03;;;;;;;1.20;0.80;;;;;;;17.91;45.51;96190.81;1766265;81;20987;-86
2022/05/23 10:21:37;;;;;;;1.20;0.88;;;;;;;17.86;44.67;96193.83;1766889;81;20963;-86
2022/05/23 10:24:20;;;;;;;2.83;1.70;;;;;;;17.84;43.10;96186.70;1767097;81;21055;-86
2022/05/23 10:26:56;;;;;;;1.80;1.35;;;;;;;17.65;42.58;96196.53;1767057;81;21361;-85
2022/05/23 10:29:30;;;;;;;2.20;1.10;;;;;;;17.55;43.80;96189.21;1767048;81;21011;-86
2022/05/23 10:32:07;;;;;;;2.72;1.30;;;;;;;17.60;44.43;96184.09;1767157;81;21117;-85
2022/05/23 10:34:51;;;;;;;1.72;1.00;;;;;;;17.74;44.60;96189.13;1767062;81;20990;-87
2022/05/23 10:37:23;;;;;;;1.00;0.72;;;;;;;17.84;43.75;96186.18;1767141;81;21035;-86
2022/05/23 10:43:02;;;;;;;1.35;0.98;;;;;;;18.10;43.93;96178.81;1767078;81;21019;-84
2022/05/23 10:45:50;;;;;;;1.95;0.90;;;;;;;18.27;45.49;96175.72;1767299;81;21049;-84
2022/05/23 10:48:50;;;;;;;1.37;1.00;;;;;;;18.43;44.77;96174.17;1766820;81;21081;-84
2022/05/23 10:51:42;;;;;;;3.35;1.02;;;;;;;18.57;44.00;96169.70;1766969;81;20967;-84
2022/05/23 10:54:39;;;;;;;2.33;0.82;;;;;;;18.54;43.43;96158.30;1767087;81;21033;-84
2022/05/23 10:57:19;;;;;;;1.60;1.20;;;;;;;18.50;44.87;96161.66;1766157;81;21378;-84
2022/05/23 10:59:53;;;;;;;1.87;1.00;;;;;;;18.44;43.58;96151.57;1767234;81;21425;-84
2022/05/23 11:03:07;;;;;;;3.52;1.17;;;;;;;18.42;42.60;96150.22;1767179;81;21382;-84
2022/05/23 11:05:51;;;;;;;2.30;0.90;;;;;;;18.46;43.45;96150.02;1767252;81;21441;-84
2022/05/23 11:08:47;;;;;;;1.65;0.85;;;;;;;18.39;42.43;96143.59;1766856;81;21090;-84
2022/05/23 11:12:02;;;;;;;1.65;1.07;;;;;;;18.42;41.83;96141.80;1766823;81;21070;-84
2022/05/23 11:14:49;;;;;;;2.08;0.85;;;;;;;18.43;42.35;96142.08;1766746;81;21022;-83
2022/05/23 11:17:29;;;;;;;1.27;1.00;;;;;;;18.58;43.84;96134.97;1766152;81;20971;-83
2022/05/23 11:20:10;;;;;;;1.80;1.00;;;;;;;18.76;44.40;96134.77;1758722;81;21529;-84
2022/05/23 11:22:43;;;;;;;2.08;0.90;;;;;;;18.87;43.31;96140.48;1758762;81;20976;-84
2022/05/23 11:25:39;;;;;;;1.70;0.72;;;;;;;19.02;43.00;96140.42;1758715;82;21441;-83
2022/05/23 11:34:31;;;;;;;1.12;0.70;;;;;;;19.00;42.03;96128.81;1758732;81;21020;-83
2022/05/23 11:37:09;;;;;;;1.75;0.80;;;;;;;19.03;41.73;96130.95;1758603;81;21397;-83
2022/05/23 11:39:54;;;;;;;1.72;1.00;;;;;;;19.09;42.30;96123.95;1758571;81;21031;-84
2022/05/23 11:42:55;;;;;;;1.52;1.00;;;;;;;19.26;42.50;96119.97;1757752;82;21053;-84
2022/05/23 11:48:46;;;;;;;1.40;0.88;;;;;;;19.32;41.11;96118.47;1758762;81;21039;-83
2022/05/23 11:51:36;;;;;;;2.00;1.25;;;;;;;19.33;41.36;96112.16;1758608;82;21326;-83
2022/05/23 11:54:11;;;;;;;1.80;1.27;;;;;;;19.31;41.07;96110.81;1758685;81;21006;-84
2022/05/23 11:57:04;;;;;;;1.92;1.22;;;;;;;19.31;40.90;96104.23;1758726;81;21425;-84
2022/05/23 11:59:35;;;;;;;2.75;1.00;;;;;;;19.38;40.52;96103.55;1758680;81;20995;-83
2022/05/23 12:02:12;;;;;;;1.72;1.07;;;;;;;19.48;40.26;96098.39;1758902;82;21042;-83
2022/05/23 12:04:56;;;;;;;1.67;1.05;;;;;;;19.53;40.10;96106.38;1758598;81;21038;-83
2022/05/23 12:07:45;;;;;;;2.95;1.10;;;;;;;19.37;39.20;96104.07;1758774;82;21022;-83
2022/05/23 12:10:28;;;;;;;1.07;0.90;;;;;;;19.29;39.82;96100.52;1758458;81;21445;-84
2022/05/23 12:12:59;;;;;;;1.32;0.88;;;;;;;19.25;39.57;96092.05;1758689;81;21425;-84
2022/05/23 12:15:47;;;;;;;1.27;0.80;;;;;;;19.18;40.20;96087.72;1733200;82;21067;-84
2022/05/23 12:18:28;;;;;;;2.12;0.78;;;;;;;18.98;37.84;96086.13;1761373;81;21062;-84
2022/05/23 12:20:57;;;;;;;1.87;0.78;;;;;;;18.76;38.02;96080.02;1767015;81;21002;-83
2022/05/23 12:23:44;;;;;;;2.12;0.75;;;;;;;18.57;39.59;96082.87;1767057;81;21365;-83
2022/05/23 12:26:16;;;;;;;1.98;1.05;;;;;;;18.58;40.98;96071.30;1767094;81;21107;-84
2022/05/23 12:28:59;;;;;;;2.27;0.82;;;;;;;18.68;39.35;96067.25;1767333;81;21442;-84
2022/05/23 12:31:33;;;;;;;1.57;0.80;;;;;;;18.87;39.36;96058.88;1749050;81;21019;-84
2022/05/23 12:34:08;;;;;;;2.12;1.20;;;;;;;18.98;39.74;96050.59;1767034;81;21043;-84
2022/05/23 12:36:49;;;;;;;1.52;0.95;;;;;;;19.14;39.60;96051.59;1767003;81;20991;-83
2022/05/23 12:39:55;;;;;;;1.82;1.05;;;;;;;19.24;39.94;96042.52;1767004;81;21101;-84
2022/05/23 12:42:55;;;;;;;1.90;1.22;;;;;;;19.23;39.07;96047.52;1765942;81;21425;-83
2022/05/23 12:45:40;;;;;;;2.25;1.02;;;;;;;19.33;40.04;96041.03;1767014;81;21377;-83
2022/05/23 12:48:40;;;;;;;2.52;1.57;;;;;;;19.46;39.49;96038.56;1766891;81;21380;-84
2022/05/23 12:51:14;;;;;;;1.50;1.10;;;;;;;19.55;39.56;96033.70;1767005;81;21021;-84
2022/05/23 12:54:04;;;;;;;2.92;1.32;;;;;;;19.63;39.43;96035.36;1766378;81;21067;-83
2022/05/23 12:57:04;;;;;;;2.20;1.50;;;;;;;19.53;39.06;96036.55;1766936;81;21011;-82